createdAt,value
2022-09-29T00:00:35.773Z,15.50
2022-09-29T00:03:03.424Z,15.60
2022-09-29T00:05:30.976Z,15.70
2022-09-29T00:07:58.465Z,15.70
2022-09-29T00:10:26.054Z,15.70
2022-09-29T00:12:53.645Z,15.50
2022-09-29T00:15:21.219Z,15.50
2022-09-29T00:18:12.120Z,15.40
2022-09-29T00:20:36.673Z,15.40
2022-09-29T00:23:04.261Z,15.50
2022-09-29T00:25:32.130Z,15.50
2022-09-29T00:27:59.617Z,15.50
2022-09-29T00:30:27.394Z,15.50
2022-09-29T00:32:54.910Z,15.20
2022-09-29T00:35:22.403Z,15.10
2022-09-29T00:37:50.447Z,15.00
2022-09-29T00:40:18.014Z,15.10
2022-09-29T00:42:45.777Z,15.20
2022-09-29T00:45:16.278Z,15.40
2022-09-29T00:47:45.196Z,15.30
2022-09-29T00:50:36.059Z,15.30
2022-09-29T00:53:04.288Z,15.20
2022-09-29T00:55:36.953Z,15.20
2022-09-29T00:58:10.906Z,15.20
2022-09-29T01:00:39.212Z,15.10
2022-09-29T01:03:13.673Z,15.20
2022-09-29T01:05:45.190Z,15.30
2022-09-29T01:08:15.649Z,15.40
2022-09-29T01:10:43.608Z,15.30
2022-09-29T01:13:11.596Z,15.30
2022-09-29T01:15:39.340Z,15.30
2022-09-29T01:18:08.035Z,15.20
2022-09-29T01:20:39.493Z,15.10
2022-09-29T01:23:07.042Z,15.30
2022-09-29T01:25:40.813Z,15.60
2022-09-29T01:28:14.666Z,15.60
2022-09-29T01:30:51.394Z,15.60
2022-09-29T01:33:21.871Z,15.60
2022-09-29T01:36:09.560Z,15.60
2022-09-29T01:38:43.206Z,15.60
2022-09-29T01:41:12.817Z,15.40
2022-09-29T01:43:46.000Z,15.10
2022-09-29T01:46:17.211Z,15.30
2022-09-29T01:48:47.154Z,15.30
2022-09-29T01:51:17.299Z,15.30
2022-09-29T01:53:48.192Z,15.30
2022-09-29T01:56:20.197Z,15.30
2022-09-29T01:58:53.012Z,15.40
2022-09-29T02:01:22.436Z,15.40
2022-09-29T02:03:58.388Z,15.20
2022-09-29T02:06:30.527Z,15.30
2022-09-29T02:08:59.291Z,15.40
2022-09-29T02:11:27.571Z,15.20
2022-09-29T02:14:13.850Z,15.20
2022-09-29T02:16:48.281Z,15.20
2022-09-29T02:19:18.735Z,15.10
2022-09-29T02:21:46.473Z,15.00
2022-09-29T02:24:14.114Z,15.00
2022-09-29T02:26:42.746Z,15.10
2022-09-29T02:29:10.365Z,15.00
2022-09-29T02:31:38.897Z,15.00
2022-09-29T02:34:08.735Z,14.80
2022-09-29T02:36:45.344Z,14.80
2022-09-29T02:39:22.318Z,14.70
2022-09-29T02:42:05.996Z,14.70
2022-09-29T02:44:36.553Z,14.80
2022-09-29T02:47:22.882Z,14.80
2022-09-29T02:49:53.295Z,14.70
2022-09-29T02:52:20.849Z,14.80
2022-09-29T02:54:55.797Z,14.60
2022-09-29T02:57:28.043Z,14.70
2022-09-29T02:59:55.491Z,14.80
2022-09-29T03:02:27.029Z,14.80
2022-09-29T03:04:55.305Z,14.70
2022-09-29T03:07:22.890Z,14.60
2022-09-29T03:09:50.488Z,14.60
2022-09-29T03:12:18.770Z,14.70
2022-09-29T03:14:46.402Z,14.60
2022-09-29T03:17:13.907Z,14.70
2022-09-29T03:19:41.440Z,14.60
2022-09-29T03:22:08.892Z,14.50
2022-09-29T03:24:36.435Z,14.60
2022-09-29T03:27:04.726Z,14.60
2022-09-29T03:29:32.497Z,14.50
2022-09-29T03:32:00.595Z,14.60
2022-09-29T03:34:28.160Z,14.70
2022-09-29T03:36:55.761Z,14.60
2022-09-29T03:39:23.673Z,14.40
2022-09-29T03:41:51.363Z,14.30
2022-09-29T03:44:18.970Z,14.30
2022-09-29T03:46:47.485Z,14.30
2022-09-29T03:49:16.045Z,14.20
2022-09-29T03:51:44.120Z,14.10
2022-09-29T03:54:11.970Z,14.10
2022-09-29T03:56:39.587Z,14.20
2022-09-29T03:59:09.514Z,14.30
2022-09-29T04:01:38.509Z,14.60
2022-09-29T04:04:07.186Z,14.70
2022-09-29T04:06:36.510Z,14.60
2022-09-29T04:09:04.359Z,14.60
2022-09-29T04:11:31.984Z,14.40
2022-09-29T04:13:59.512Z,14.30
2022-09-29T04:16:27.164Z,14.30
2022-09-29T04:18:54.803Z,14.30
2022-09-29T04:21:22.665Z,14.30
2022-09-29T04:23:50.318Z,14.30
2022-09-29T04:26:18.164Z,14.30
2022-09-29T04:28:45.721Z,14.20
2022-09-29T04:31:13.507Z,14.20
2022-09-29T04:33:41.762Z,14.10
2022-09-29T04:36:09.517Z,14.20
2022-09-29T04:38:37.126Z,14.30
2022-09-29T04:41:04.775Z,14.20
2022-09-29T04:43:32.430Z,14.40
2022-09-29T04:46:03.878Z,14.50
2022-09-29T04:48:35.451Z,14.60
2022-09-29T04:51:04.820Z,14.50
2022-09-29T04:53:32.519Z,14.40
2022-09-29T04:56:04.540Z,14.40
2022-09-29T04:58:32.194Z,14.60
2022-09-29T05:01:09.625Z,14.70
2022-09-29T05:03:37.673Z,14.80
2022-09-29T05:06:06.395Z,14.80
2022-09-29T05:08:33.901Z,14.70
2022-09-29T05:11:07.297Z,14.70
2022-09-29T05:13:35.046Z,14.70
2022-09-29T05:16:03.301Z,14.60
2022-09-29T05:18:31.103Z,14.70
2022-09-29T05:21:26.601Z,14.80
2022-09-29T05:23:53.185Z,15.00
2022-09-29T05:26:20.626Z,14.90
2022-09-29T05:28:48.261Z,14.70
2022-09-29T05:31:16.191Z,14.80
2022-09-29T05:33:43.822Z,14.80
2022-09-29T05:36:12.247Z,14.80
2022-09-29T05:38:40.295Z,14.80
2022-09-29T05:41:09.252Z,14.80
2022-09-29T05:43:36.834Z,14.90
2022-09-29T05:46:05.621Z,14.70
2022-09-29T05:48:33.272Z,14.70
2022-09-29T05:51:07.112Z,14.70
2022-09-29T05:53:34.682Z,14.70
2022-09-29T05:56:06.412Z,14.90
2022-09-29T05:58:34.233Z,14.90
2022-09-29T06:01:05.494Z,14.80
2022-09-29T06:03:34.410Z,14.80
2022-09-29T06:06:05.865Z,15.00
2022-09-29T06:08:33.494Z,15.00
2022-09-29T06:11:08.520Z,15.20
2022-09-29T06:13:43.742Z,15.20
2022-09-29T06:16:11.750Z,15.40
2022-09-29T06:18:39.617Z,15.50
2022-09-29T06:21:08.675Z,15.60
2022-09-29T06:23:36.923Z,15.70
2022-09-29T06:26:07.571Z,15.80
2022-09-29T06:28:35.675Z,15.80
2022-09-29T06:31:14.014Z,15.80
2022-09-29T06:33:41.548Z,16.00
2022-09-29T06:36:34.806Z,16.10
2022-09-29T06:39:02.846Z,16.40
2022-09-29T06:41:30.608Z,16.40
2022-09-29T06:43:58.301Z,16.80
2022-09-29T06:46:27.264Z,16.90
2022-09-29T06:48:55.410Z,16.90
2022-09-29T06:51:26.507Z,17.00
2022-09-29T06:54:06.739Z,17.00
2022-09-29T06:56:37.734Z,17.20
2022-09-29T06:59:06.574Z,17.40
2022-09-29T07:01:34.744Z,17.20
2022-09-29T07:04:02.696Z,17.10
2022-09-29T07:06:30.891Z,17.00
2022-09-29T07:08:59.334Z,16.90
2022-09-29T07:11:27.175Z,17.00
2022-09-29T07:13:55.359Z,17.00
2022-09-29T07:16:24.451Z,17.10
2022-09-29T07:18:52.732Z,17.10
2022-09-29T07:21:22.368Z,17.20
2022-09-29T07:23:50.140Z,17.30
2022-09-29T07:26:18.269Z,17.40
2022-09-29T07:28:46.405Z,17.40
2022-09-29T07:31:15.949Z,17.60
2022-09-29T07:33:44.476Z,17.80
2022-09-29T07:36:12.757Z,17.80
2022-09-29T07:38:40.615Z,17.90
2022-09-29T07:41:12.074Z,17.90
2022-09-29T07:43:39.799Z,17.90
2022-09-29T07:46:08.087Z,18.00
2022-09-29T07:48:36.595Z,17.90
2022-09-29T07:51:05.961Z,17.80
2022-09-29T07:53:34.664Z,17.80
2022-09-29T07:56:03.172Z,17.80
2022-09-29T07:58:32.461Z,17.80
2022-09-29T08:01:00.617Z,17.80
2022-09-29T08:03:30.279Z,17.90
2022-09-29T08:06:00.891Z,18.00
2022-09-29T08:08:28.434Z,18.10
2022-09-29T08:11:10.581Z,18.40
2022-09-29T08:13:39.921Z,18.70
2022-09-29T08:16:08.816Z,18.90
2022-09-29T08:18:36.690Z,18.90
2022-09-29T08:21:04.834Z,18.80
2022-09-29T08:23:36.474Z,18.70
2022-09-29T08:26:05.021Z,18.70
2022-09-29T08:28:33.329Z,18.60
2022-09-29T08:31:08.281Z,18.60
2022-09-29T08:33:36.147Z,18.50
2022-09-29T08:36:06.417Z,18.60
2022-09-29T08:38:34.004Z,18.60
2022-09-29T08:41:03.660Z,18.70
2022-09-29T08:43:42.106Z,18.80
2022-09-29T08:46:32.466Z,18.90
2022-09-29T08:49:03.415Z,18.90
2022-09-29T08:51:41.073Z,18.90
2022-09-29T08:54:38.768Z,18.90
2022-09-29T08:57:07.820Z,19.00
2022-09-29T08:59:35.486Z,19.00
2022-09-29T09:02:03.086Z,19.00
2022-09-29T09:04:36.726Z,18.90
2022-09-29T09:07:11.145Z,18.90
2022-09-29T09:09:57.754Z,18.90
2022-09-29T09:12:34.349Z,19.00
2022-09-29T09:15:20.237Z,19.00
2022-09-29T09:18:06.489Z,19.10
2022-09-29T09:20:36.899Z,19.30
2022-09-29T09:23:13.912Z,19.40
2022-09-29T09:25:46.643Z,19.50
2022-09-29T09:28:19.410Z,19.60
2022-09-29T09:30:53.768Z,19.60
2022-09-29T09:33:39.962Z,19.90
2022-09-29T09:36:19.756Z,20.10
2022-09-29T09:38:55.816Z,20.30
2022-09-29T09:41:24.708Z,20.40
2022-09-29T09:43:55.099Z,20.40
2022-09-29T09:46:22.626Z,20.50
2022-09-29T09:48:59.607Z,20.50
2022-09-29T09:51:27.647Z,20.40
2022-09-29T09:53:57.857Z,20.40
2022-09-29T09:56:45.255Z,20.50
2022-09-29T09:59:23.692Z,20.50
2022-09-29T10:01:52.335Z,20.50
2022-09-29T10:04:20.754Z,20.50
2022-09-29T10:06:48.325Z,20.50
2022-09-29T10:09:16.831Z,20.60
2022-09-29T10:11:45.794Z,20.60
2022-09-29T10:14:16.232Z,20.70
2022-09-29T10:16:53.313Z,20.90
2022-09-29T10:19:24.849Z,20.90
2022-09-29T10:22:12.608Z,21.00
2022-09-29T10:24:40.145Z,21.00
2022-09-29T10:27:08.562Z,21.00
2022-09-29T10:29:39.355Z,21.20
2022-09-29T10:32:08.990Z,21.30
2022-09-29T10:34:37.990Z,21.40
2022-09-29T10:37:08.567Z,21.40
2022-09-29T10:39:41.469Z,21.40
2022-09-29T10:42:21.178Z,21.50
2022-09-29T10:44:54.367Z,21.70
2022-09-29T10:47:22.800Z,22.00
2022-09-29T10:50:07.606Z,22.40
2022-09-29T10:52:37.200Z,22.70
2022-09-29T10:55:07.514Z,23.00
2022-09-29T10:57:35.791Z,23.20
2022-09-29T11:00:07.602Z,23.20
2022-09-29T11:02:39.082Z,23.10
2022-09-29T11:05:19.050Z,23.20
2022-09-29T11:07:48.665Z,23.10
2022-09-29T11:10:37.284Z,23.10
2022-09-29T11:13:38.246Z,23.00
2022-09-29T11:16:12.741Z,23.20
2022-09-29T11:18:41.039Z,23.20
2022-09-29T11:21:17.309Z,23.40
2022-09-29T11:23:47.194Z,23.30
2022-09-29T11:26:35.536Z,23.50
2022-09-29T11:29:11.308Z,23.50
2022-09-29T11:31:51.628Z,23.40
2022-09-29T11:34:22.696Z,23.50
2022-09-29T11:37:06.057Z,23.60
2022-09-29T11:39:51.440Z,23.80
2022-09-29T11:42:27.932Z,23.80
2022-09-29T11:44:59.685Z,24.00
2022-09-29T11:47:43.016Z,23.90
2022-09-29T11:50:31.891Z,24.10
2022-09-29T11:53:18.975Z,24.30
2022-09-29T11:55:58.564Z,24.20
2022-09-29T11:58:35.412Z,24.00
2022-09-29T12:01:10.834Z,24.00
2022-09-29T12:03:42.120Z,24.30
2022-09-29T12:06:17.268Z,24.40
2022-09-29T12:08:57.112Z,24.40
2022-09-29T12:11:59.874Z,24.10
2022-09-29T12:14:53.507Z,23.40
2022-09-29T12:17:22.108Z,22.90
2022-09-29T12:19:59.783Z,22.60
2022-09-29T12:22:30.168Z,22.40
2022-09-29T12:25:01.276Z,22.30
2022-09-29T12:27:32.415Z,22.20
2022-09-29T12:30:06.154Z,22.30
2022-09-29T12:32:43.572Z,22.60
2022-09-29T12:35:11.113Z,23.00
2022-09-29T12:37:57.488Z,23.20
2022-09-29T12:40:24.865Z,23.30
2022-09-29T12:43:11.389Z,23.40
2022-09-29T12:45:48.797Z,23.50
2022-09-29T12:48:26.446Z,23.60
2022-09-29T12:50:54.029Z,23.60
2022-09-29T12:53:21.441Z,23.70
2022-09-29T12:56:00.154Z,23.70
2022-09-29T12:58:35.486Z,23.80
2022-09-29T13:01:20.210Z,23.80
2022-09-29T13:04:06.705Z,23.50
2022-09-29T13:06:34.299Z,23.30
2022-09-29T13:09:20.666Z,23.10
2022-09-29T13:11:54.430Z,22.80
2022-09-29T13:14:27.962Z,22.70
2022-09-29T13:17:07.710Z,22.60
2022-09-29T13:19:59.136Z,22.50
2022-09-29T13:22:33.441Z,22.50
2022-09-29T13:25:13.735Z,22.40
2022-09-29T13:27:42.639Z,22.40
2022-09-29T13:30:11.442Z,22.50
2022-09-29T13:32:41.445Z,22.60
2022-09-29T13:35:18.877Z,22.60
2022-09-29T13:37:49.033Z,22.80
2022-09-29T13:40:21.394Z,22.80
2022-09-29T13:42:52.665Z,22.80
2022-09-29T13:45:21.607Z,22.90
2022-09-29T13:47:50.378Z,22.80
2022-09-29T13:50:36.773Z,22.80
2022-09-29T13:53:33.996Z,22.70
2022-09-29T13:56:02.449Z,22.60
2022-09-29T13:58:31.401Z,22.50
2022-09-29T14:01:00.416Z,22.40
2022-09-29T14:03:31.447Z,22.70
2022-09-29T14:06:08.731Z,22.90
2022-09-29T14:08:59.666Z,23.00
2022-09-29T14:11:27.422Z,23.00
2022-09-29T14:14:02.227Z,23.10
2022-09-29T14:16:30.285Z,23.00
2022-09-29T14:19:07.909Z,23.20
2022-09-29T14:21:46.753Z,23.30
2022-09-29T14:24:38.147Z,23.30
2022-09-29T14:27:15.469Z,23.30
2022-09-29T14:29:55.462Z,23.10
2022-09-29T14:32:42.470Z,22.80
2022-09-29T14:35:18.867Z,22.70
2022-09-29T14:37:49.664Z,22.70
2022-09-29T14:40:30.158Z,22.70
2022-09-29T14:43:14.781Z,22.80
2022-09-29T14:46:23.672Z,22.80
2022-09-29T14:49:34.295Z,22.70
2022-09-29T14:52:20.801Z,22.80
2022-09-29T14:54:57.941Z,22.70
2022-09-29T14:57:44.594Z,22.70
2022-09-29T15:00:24.110Z,22.70
2022-09-29T15:02:59.905Z,22.70
2022-09-29T15:05:38.406Z,22.60
2022-09-29T15:08:22.724Z,22.60
2022-09-29T15:10:50.250Z,22.50
2022-09-29T15:13:25.602Z,22.40
2022-09-29T15:15:55.618Z,22.20
2022-09-29T15:18:29.398Z,22.20
2022-09-29T15:21:10.163Z,22.10
2022-09-29T15:23:44.258Z,21.90
2022-09-29T15:26:15.296Z,21.60
2022-09-29T15:28:43.950Z,21.50
2022-09-29T15:31:15.438Z,21.50
2022-09-29T15:33:43.877Z,21.40
2022-09-29T15:36:23.664Z,21.30
2022-09-29T15:38:52.853Z,21.30
2022-09-29T15:41:23.058Z,21.30
2022-09-29T15:44:00.537Z,21.40
2022-09-29T15:46:36.052Z,21.30
2022-09-29T15:49:18.165Z,21.20
2022-09-29T15:51:56.074Z,21.30
2022-09-29T15:54:24.206Z,21.40
2022-09-29T15:57:09.978Z,21.40
2022-09-29T15:59:44.233Z,21.20
2022-09-29T16:02:15.076Z,21.10
2022-09-29T16:04:43.651Z,20.90
2022-09-29T16:07:31.551Z,20.70
2022-09-29T16:10:19.251Z,20.60
2022-09-29T16:12:53.928Z,20.30
2022-09-29T16:15:41.570Z,20.30
2022-09-29T16:18:23.696Z,20.20
2022-09-29T16:20:52.033Z,20.30
2022-09-29T16:23:25.518Z,20.20
2022-09-29T16:26:08.514Z,20.20
2022-09-29T16:28:37.065Z,20.20
2022-09-29T16:31:17.229Z,20.20
2022-09-29T16:33:46.600Z,20.20
2022-09-29T16:36:24.379Z,20.10
2022-09-29T16:38:54.015Z,20.10
2022-09-29T16:41:34.513Z,19.90
2022-09-29T16:44:12.918Z,20.00
2022-09-29T16:46:45.796Z,20.00
2022-09-29T16:49:14.888Z,20.00
2022-09-29T16:51:45.217Z,20.00
2022-09-29T16:54:16.482Z,19.80
2022-09-29T16:56:45.522Z,19.70
2022-09-29T16:59:17.676Z,19.70
2022-09-29T17:01:46.697Z,19.70
2022-09-29T17:04:14.403Z,19.60
2022-09-29T17:06:44.956Z,19.60
2022-09-29T17:09:16.575Z,19.60
2022-09-29T17:11:45.121Z,19.60
2022-09-29T17:14:13.794Z,19.50
2022-09-29T17:16:42.219Z,19.50
2022-09-29T17:19:10.416Z,19.50
2022-09-29T17:21:37.949Z,19.60
2022-09-29T17:24:05.518Z,19.60
2022-09-29T17:26:58.780Z,19.50
2022-09-29T17:29:26.361Z,19.40
2022-09-29T17:31:53.736Z,19.40
2022-09-29T17:34:30.083Z,19.50
2022-09-29T17:36:59.904Z,19.50
2022-09-29T17:39:28.106Z,19.40
2022-09-29T17:41:55.883Z,19.40
2022-09-29T17:44:23.438Z,19.30
2022-09-29T17:46:54.682Z,19.30
2022-09-29T17:49:29.927Z,19.30
2022-09-29T17:51:57.378Z,19.30
2022-09-29T17:54:27.389Z,19.30
2022-09-29T17:56:58.920Z,19.40
2022-09-29T17:59:29.753Z,19.40
2022-09-29T18:02:00.220Z,19.30
2022-09-29T18:04:28.828Z,19.40
2022-09-29T18:06:56.412Z,19.40
2022-09-29T18:09:23.917Z,19.30
2022-09-29T18:11:51.502Z,19.20
2022-09-29T18:14:19.077Z,19.30
2022-09-29T18:16:46.594Z,19.20
2022-09-29T18:19:17.446Z,19.30
2022-09-29T18:21:45.321Z,19.30
2022-09-29T18:24:13.329Z,19.30
2022-09-29T18:26:44.217Z,19.20
2022-09-29T18:29:16.070Z,19.10
2022-09-29T18:31:43.830Z,19.10
2022-09-29T18:34:18.852Z,19.00
2022-09-29T18:36:46.643Z,18.90
2022-09-29T18:39:14.502Z,19.10
2022-09-29T18:41:42.148Z,19.00
2022-09-29T18:44:13.853Z,18.90
2022-09-29T18:46:44.086Z,18.70
2022-09-29T18:49:12.841Z,18.50
2022-09-29T18:51:40.522Z,18.60
2022-09-29T18:54:08.504Z,18.60
2022-09-29T18:56:36.129Z,18.40
2022-09-29T18:59:06.137Z,18.30
2022-09-29T19:01:33.719Z,18.30
2022-09-29T19:04:01.381Z,18.40
2022-09-29T19:06:29.061Z,18.40
2022-09-29T19:08:56.538Z,18.40
2022-09-29T19:11:27.719Z,18.50
2022-09-29T19:13:56.422Z,18.30
2022-09-29T19:16:24.432Z,18.20
2022-09-29T19:18:51.946Z,18.30
2022-09-29T19:21:19.448Z,18.40
2022-09-29T19:23:47.057Z,18.20
2022-09-29T19:26:19.106Z,18.20
2022-09-29T19:28:48.261Z,18.20
2022-09-29T19:31:19.508Z,18.30
2022-09-29T19:33:47.148Z,18.10
2022-09-29T19:36:16.336Z,18.00
2022-09-29T19:38:44.293Z,17.90
2022-09-29T19:41:12.930Z,17.90
2022-09-29T19:43:40.608Z,17.90
2022-09-29T19:46:09.293Z,18.00
2022-09-29T19:48:37.219Z,18.10
2022-09-29T19:51:23.922Z,18.10
2022-09-29T19:54:10.653Z,18.00
2022-09-29T19:56:43.077Z,17.90
2022-09-29T19:59:14.334Z,18.00
2022-09-29T20:01:42.979Z,17.90
2022-09-29T20:04:12.047Z,17.90
2022-09-29T20:06:40.049Z,17.60
2022-09-29T20:09:08.592Z,17.50
2022-09-29T20:11:38.298Z,17.40
2022-09-29T20:14:06.731Z,17.40
2022-09-29T20:16:35.633Z,17.50
2022-09-29T20:19:04.475Z,17.50
2022-09-29T20:21:31.957Z,17.40
2022-09-29T20:24:01.392Z,17.50
2022-09-29T20:26:28.978Z,17.60
2022-09-29T20:28:56.474Z,17.50
2022-09-29T20:31:24.039Z,17.40
2022-09-29T20:33:51.843Z,17.40
2022-09-29T20:36:20.729Z,17.20
2022-09-29T20:38:48.338Z,17.40
2022-09-29T20:41:16.104Z,17.40
2022-09-29T20:43:46.877Z,17.50
2022-09-29T20:46:14.567Z,17.30
2022-09-29T20:48:42.700Z,17.10
2022-09-29T20:51:15.338Z,17.10
2022-09-29T20:53:44.238Z,17.10
2022-09-29T20:56:16.627Z,16.90
2022-09-29T20:58:45.133Z,16.80
2022-09-29T21:01:21.035Z,16.70
2022-09-29T21:03:52.857Z,16.70
2022-09-29T21:06:21.344Z,16.90
2022-09-29T21:08:49.032Z,16.90
2022-09-29T21:11:17.166Z,16.90
2022-09-29T21:13:48.168Z,17.00
2022-09-29T21:16:15.729Z,17.00
2022-09-29T21:18:43.343Z,17.10
2022-09-29T21:21:11.728Z,17.20
2022-09-29T21:23:40.406Z,16.90
2022-09-29T21:26:14.269Z,16.60
2022-09-29T21:28:43.163Z,16.60
2022-09-29T21:31:14.892Z,16.60
2022-09-29T21:33:42.722Z,16.60
2022-09-29T21:36:13.358Z,16.50
2022-09-29T21:38:42.551Z,16.60
2022-09-29T21:41:16.114Z,16.60
2022-09-29T21:43:44.481Z,16.60
2022-09-29T21:46:13.295Z,16.60
2022-09-29T21:48:43.073Z,16.80
2022-09-29T21:51:14.955Z,16.90
2022-09-29T21:53:43.169Z,17.00
2022-09-29T21:56:16.398Z,17.10
2022-09-29T21:58:46.154Z,17.10
2022-09-29T22:01:13.730Z,17.00
2022-09-29T22:03:42.359Z,17.10
2022-09-29T22:06:14.559Z,17.00
2022-09-29T22:08:42.083Z,16.80
2022-09-29T22:11:10.365Z,16.70
2022-09-29T22:13:38.052Z,16.60
2022-09-29T22:16:10.271Z,16.60
2022-09-29T22:18:42.272Z,16.60
2022-09-29T22:21:11.039Z,16.50
2022-09-29T22:23:38.642Z,16.50
2022-09-29T22:26:09.526Z,16.40
2022-09-29T22:28:37.051Z,16.30
2022-09-29T22:31:09.384Z,16.20
2022-09-29T22:33:40.879Z,16.20
2022-09-29T22:36:08.879Z,16.30
2022-09-29T22:38:37.798Z,16.40
2022-09-29T22:41:24.487Z,16.50
2022-09-29T22:43:53.474Z,16.50
2022-09-29T22:46:21.807Z,16.40
2022-09-29T22:48:49.372Z,16.40
2022-09-29T22:51:16.931Z,16.30
2022-09-29T22:53:44.768Z,16.20
2022-09-29T22:56:13.505Z,16.20
2022-09-29T22:58:42.145Z,16.30
2022-09-29T23:01:12.527Z,16.20
2022-09-29T23:03:41.049Z,16.30
2022-09-29T23:06:09.167Z,16.40
2022-09-29T23:08:37.376Z,16.40
2022-09-29T23:11:07.959Z,16.30
2022-09-29T23:13:37.254Z,16.30
2022-09-29T23:16:09.563Z,16.20
2022-09-29T23:18:44.646Z,16.20
2022-09-29T23:21:13.819Z,16.10
2022-09-29T23:23:41.465Z,15.80
2022-09-29T23:26:09.137Z,15.70
2022-09-29T23:28:36.735Z,15.70
2022-09-29T23:31:05.081Z,15.80
2022-09-29T23:33:33.063Z,15.80
2022-09-29T23:36:11.338Z,15.90
2022-09-29T23:38:57.985Z,15.90
2022-09-29T23:41:27.531Z,15.90
2022-09-29T23:43:55.937Z,15.70
2022-09-29T23:46:24.173Z,15.60
2022-09-29T23:48:51.882Z,15.70
2022-09-29T23:51:19.529Z,15.70
2022-09-29T23:53:47.100Z,15.80
2022-09-29T23:56:14.583Z,16.00
2022-09-29T23:58:42.033Z,16.00
